createdAt,value
2019-04-10T00:00:32.540Z,19.80
2019-04-10T00:03:02.102Z,18.90
2019-04-10T00:05:29.416Z,18.23
2019-04-10T00:07:57.584Z,18.27
2019-04-10T00:10:25.064Z,16.73
2019-04-10T00:12:52.342Z,17.93
2019-04-10T00:15:19.787Z,16.50
2019-04-10T00:17:47.235Z,17.40
2019-04-10T00:20:14.536Z,17.83
2019-04-10T00:22:42.353Z,18.07
2019-04-10T00:25:10.706Z,17.70
2019-04-10T00:27:38.932Z,16.90
2019-04-10T00:30:06.972Z,19.07
2019-04-10T00:32:34.373Z,16.87
2019-04-10T00:35:02.546Z,17.53
2019-04-10T00:37:31.603Z,18.17
2019-04-10T00:39:59.217Z,16.73
2019-04-10T00:42:27.431Z,18.57
2019-04-10T00:44:54.906Z,17.13
2019-04-10T00:47:23.197Z,19.90
2019-04-10T00:49:50.707Z,18.13
2019-04-10T00:52:18.062Z,17.40
2019-04-10T00:54:45.376Z,17.53
2019-04-10T00:57:12.882Z,15.77
2019-04-10T00:59:40.361Z,18.00
2019-04-10T01:02:08.051Z,16.67
2019-04-10T01:04:36.151Z,17.33
2019-04-10T01:07:04.324Z,16.37
2019-04-10T01:09:33.243Z,15.90
2019-04-10T01:12:00.992Z,17.13
2019-04-10T01:14:28.344Z,16.87
2019-04-10T01:16:55.799Z,18.10
2019-04-10T01:19:23.897Z,17.50
2019-04-10T01:21:51.272Z,19.43
2019-04-10T01:24:19.569Z,19.60
2019-04-10T01:26:47.576Z,20.37
2019-04-10T01:29:15.501Z,21.10
2019-04-10T01:31:43.535Z,20.07
2019-04-10T01:34:11.507Z,20.30
2019-04-10T01:36:39.453Z,19.80
2019-04-10T01:39:08.758Z,20.53
2019-04-10T01:41:36.302Z,20.23
2019-04-10T01:44:03.782Z,19.40
2019-04-10T01:46:33.624Z,20.60
2019-04-10T01:49:00.179Z,22.50
2019-04-10T01:51:27.574Z,20.67
2019-04-10T01:53:54.951Z,22.50
2019-04-10T01:56:31.170Z,20.43
2019-04-10T01:58:51.709Z,22.47
2019-04-10T02:01:24.197Z,21.90
2019-04-10T02:03:52.049Z,22.50
2019-04-10T02:06:21.035Z,20.70
2019-04-10T02:08:48.529Z,21.30
2019-04-10T02:11:16.178Z,21.10
2019-04-10T02:13:43.549Z,20.40
2019-04-10T02:16:10.920Z,21.93
2019-04-10T02:18:38.198Z,22.03
2019-04-10T02:21:05.496Z,22.20
2019-04-10T02:23:32.826Z,21.37
2019-04-10T02:26:00.989Z,20.60
2019-04-10T02:28:29.145Z,21.50
2019-04-10T02:30:56.808Z,21.60
2019-04-10T02:33:25.427Z,20.60
2019-04-10T02:35:57.150Z,23.00
2019-04-10T02:38:38.930Z,21.77
2019-04-10T02:40:55.326Z,21.57
2019-04-10T02:43:23.272Z,21.40
2019-04-10T02:45:51.183Z,21.20
2019-04-10T02:48:19.414Z,20.43
2019-04-10T02:50:46.949Z,20.27
2019-04-10T02:53:15.296Z,19.83
2019-04-10T02:55:43.234Z,20.43
2019-04-10T02:58:10.656Z,19.00
2019-04-10T03:00:38.013Z,20.87
2019-04-10T03:03:05.716Z,24.57
2019-04-10T03:05:34.485Z,22.50
2019-04-10T03:08:02.119Z,20.53
2019-04-10T03:10:40.567Z,22.83
2019-04-10T03:12:59.306Z,22.07
2019-04-10T03:15:29.540Z,23.60
2019-04-10T03:17:57.403Z,21.57
2019-04-10T03:20:25.100Z,22.67
2019-04-10T03:22:53.358Z,22.00
2019-04-10T03:25:21.237Z,23.90
2019-04-10T03:27:48.653Z,22.80
2019-04-10T03:30:18.101Z,22.00
2019-04-10T03:32:51.707Z,21.17
2019-04-10T03:35:26.981Z,21.13
2019-04-10T03:37:54.343Z,23.00
2019-04-10T03:40:21.698Z,21.70
2019-04-10T03:42:49.610Z,22.27
2019-04-10T03:45:16.976Z,22.00
2019-04-10T03:47:44.257Z,22.97
2019-04-10T03:50:11.810Z,23.03
2019-04-10T03:52:39.180Z,20.53
2019-04-10T03:55:06.574Z,22.47
2019-04-10T03:57:34.391Z,21.80
2019-04-10T04:00:01.848Z,22.13
2019-04-10T04:02:29.517Z,23.20
2019-04-10T04:04:57.863Z,23.80
2019-04-10T04:07:26.939Z,24.37
2019-04-10T04:09:54.433Z,24.67
2019-04-10T04:12:22.351Z,25.20
2019-04-10T04:14:49.721Z,25.50
2019-04-10T04:17:16.992Z,27.47
2019-04-10T04:19:44.308Z,26.20
2019-04-10T04:22:12.526Z,25.57
2019-04-10T04:24:40.067Z,26.30
2019-04-10T04:27:07.421Z,28.17
2019-04-10T04:29:34.700Z,31.30
2019-04-10T04:32:01.972Z,28.33
2019-04-10T04:34:29.367Z,29.70
2019-04-10T04:36:56.665Z,26.30
2019-04-10T04:39:26.926Z,27.00
2019-04-10T04:41:53.201Z,25.93
2019-04-10T04:44:20.603Z,28.43
2019-04-10T04:46:48.331Z,36.20
2019-04-10T04:49:15.828Z,40.57
2019-04-10T04:51:43.774Z,34.80
2019-04-10T04:54:11.173Z,33.87
2019-04-10T04:56:38.541Z,31.50
2019-04-10T04:59:05.990Z,29.50
2019-04-10T05:01:33.378Z,31.63
2019-04-10T05:04:00.838Z,28.80
2019-04-10T05:06:28.121Z,29.10
2019-04-10T05:08:55.399Z,28.93
2019-04-10T05:11:22.725Z,31.37
2019-04-10T05:13:50.904Z,30.07
2019-04-10T05:16:18.699Z,27.70
2019-04-10T05:18:46.085Z,29.30
2019-04-10T05:21:13.452Z,28.77
2019-04-10T05:23:40.743Z,26.47
2019-04-10T05:26:08.205Z,27.10
2019-04-10T05:28:36.198Z,29.20
2019-04-10T05:31:03.698Z,32.37
2019-04-10T05:33:31.088Z,30.10
2019-04-10T05:35:59.217Z,27.27
2019-04-10T05:38:27.059Z,26.77
2019-04-10T05:40:55.219Z,28.20
2019-04-10T05:43:22.607Z,27.53
2019-04-10T05:45:50.689Z,30.40
2019-04-10T05:48:20.980Z,30.90
2019-04-10T05:50:54.065Z,33.90
2019-04-10T05:53:16.293Z,32.13
2019-04-10T05:55:43.662Z,32.60
2019-04-10T05:58:10.939Z,32.90
2019-04-10T06:00:38.208Z,43.37
2019-04-10T06:03:06.209Z,37.00
2019-04-10T06:05:34.177Z,36.07
2019-04-10T06:08:01.620Z,33.67
2019-04-10T06:10:30.057Z,34.07
2019-04-10T06:12:58.404Z,34.07
2019-04-10T06:15:26.583Z,34.93
2019-04-10T06:17:54.497Z,31.03
2019-04-10T06:20:22.917Z,30.90
2019-04-10T06:22:50.740Z,32.97
2019-04-10T06:25:19.617Z,30.90
2019-04-10T06:27:47.077Z,33.80
2019-04-10T06:30:15.410Z,31.67
2019-04-10T06:32:43.208Z,31.63
2019-04-10T06:35:11.308Z,32.83
2019-04-10T06:37:39.843Z,32.13
2019-04-10T06:40:14.305Z,33.10
2019-04-10T06:42:46.450Z,31.77
2019-04-10T06:45:05.827Z,33.27
2019-04-10T06:47:34.020Z,32.47
2019-04-10T06:50:02.533Z,32.47
2019-04-10T06:52:30.393Z,34.57
2019-04-10T06:54:57.793Z,33.53
2019-04-10T06:57:25.068Z,31.67
2019-04-10T06:59:52.439Z,33.37
2019-04-10T07:02:27.400Z,33.57
2019-04-10T07:04:54.242Z,33.50
2019-04-10T07:07:20.326Z,32.10
2019-04-10T07:09:47.455Z,31.70
2019-04-10T07:12:14.826Z,32.40
2019-04-10T07:14:46.818Z,32.30
2019-04-10T07:17:13.942Z,30.53
2019-04-10T07:19:43.647Z,33.67
2019-04-10T07:22:12.442Z,34.70
2019-04-10T07:24:41.212Z,32.50
2019-04-10T07:27:07.838Z,34.10
2019-04-10T07:29:36.247Z,33.40
2019-04-10T07:32:07.845Z,32.03
2019-04-10T07:34:32.804Z,34.87
2019-04-10T07:37:00.238Z,31.90
2019-04-10T07:39:30.389Z,33.10
2019-04-10T07:41:57.737Z,32.17
2019-04-10T07:44:25.252Z,35.67
2019-04-10T07:46:52.942Z,37.07
2019-04-10T07:49:21.186Z,37.30
2019-04-10T07:51:49.416Z,37.10
2019-04-10T07:54:20.838Z,39.70
2019-04-10T07:56:45.824Z,38.47
2019-04-10T07:59:13.186Z,40.37
2019-04-10T08:01:40.969Z,37.83
2019-04-10T08:04:10.345Z,36.67
2019-04-10T08:06:37.834Z,36.57
2019-04-10T08:09:06.474Z,35.87
2019-04-10T08:11:33.829Z,33.63
2019-04-10T08:14:01.262Z,35.77
2019-04-10T08:16:29.088Z,34.17
2019-04-10T08:18:56.369Z,36.17
2019-04-10T08:21:23.953Z,34.43
2019-04-10T08:23:51.593Z,34.93
2019-04-10T08:26:21.288Z,36.77
2019-04-10T08:28:49.650Z,33.40
2019-04-10T08:31:17.109Z,35.07
2019-04-10T08:33:44.413Z,33.60
2019-04-10T08:36:11.703Z,36.43
2019-04-10T08:38:40.055Z,33.47
2019-04-10T08:41:08.588Z,37.27
2019-04-10T08:43:36.005Z,34.90
2019-04-10T08:46:03.523Z,34.93
2019-04-10T08:48:31.995Z,35.30
2019-04-10T08:51:00.956Z,39.40
2019-04-10T08:53:28.703Z,37.97
2019-04-10T08:55:56.784Z,38.77
2019-04-10T08:58:25.232Z,35.17
2019-04-10T09:00:54.123Z,35.27
2019-04-10T09:03:22.481Z,35.43
2019-04-10T09:05:51.032Z,36.70
2019-04-10T09:08:19.009Z,30.73
2019-04-10T09:10:46.933Z,32.60
2019-04-10T09:13:14.604Z,32.53
2019-04-10T09:15:42.368Z,31.40
2019-04-10T09:18:11.257Z,38.23
2019-04-10T09:20:38.825Z,37.30
2019-04-10T09:23:23.539Z,39.33
2019-04-10T09:25:35.449Z,38.00
2019-04-10T09:28:02.786Z,37.50
2019-04-10T09:30:31.007Z,37.10
2019-04-10T09:32:59.178Z,38.47
2019-04-10T09:35:28.661Z,39.50
2019-04-10T09:37:56.607Z,39.53
2019-04-10T09:40:24.493Z,35.83
2019-04-10T09:42:52.149Z,35.40
2019-04-10T09:45:19.993Z,33.33
2019-04-10T09:47:48.083Z,34.60
2019-04-10T09:50:15.429Z,33.23
2019-04-10T09:52:43.930Z,34.00
2019-04-10T09:55:11.772Z,34.90
2019-04-10T09:57:39.322Z,39.13
2019-04-10T10:00:07.834Z,34.40
2019-04-10T10:02:35.767Z,31.87
2019-04-10T10:05:04.309Z,36.80
2019-04-10T10:07:32.550Z,36.50
2019-04-10T10:10:01.309Z,34.40
2019-04-10T10:12:29.017Z,34.47
2019-04-10T10:14:56.357Z,34.97
2019-04-10T10:17:24.391Z,34.07
2019-04-10T10:19:53.775Z,36.67
2019-04-10T10:22:21.260Z,36.83
2019-04-10T10:24:48.963Z,36.07
2019-04-10T10:27:16.227Z,37.50
2019-04-10T10:29:44.118Z,39.47
2019-04-10T10:32:12.694Z,38.13
2019-04-10T10:34:40.817Z,38.07
2019-04-10T10:37:08.795Z,39.07
2019-04-10T10:39:37.085Z,39.13
2019-04-10T10:42:05.475Z,41.93
2019-04-10T10:44:34.101Z,38.47
2019-04-10T10:47:02.095Z,38.70
2019-04-10T10:49:30.570Z,38.47
2019-04-10T10:51:58.029Z,35.23
2019-04-10T10:54:26.833Z,34.20
2019-04-10T10:56:54.990Z,35.83
2019-04-10T10:59:22.489Z,38.87
2019-04-10T11:01:49.776Z,37.73
2019-04-10T11:04:17.118Z,40.40
2019-04-10T11:06:55.213Z,36.77
2019-04-10T11:09:15.796Z,37.50
2019-04-10T11:11:43.209Z,37.90
2019-04-10T11:14:10.956Z,37.23
2019-04-10T11:16:39.086Z,34.73
2019-04-10T11:19:06.801Z,36.30
2019-04-10T11:21:34.605Z,39.30
2019-04-10T11:24:03.056Z,39.40
2019-04-10T11:26:30.591Z,38.10
2019-04-10T11:28:58.087Z,38.50
2019-04-10T11:31:25.481Z,38.73
2019-04-10T11:33:55.643Z,39.50
2019-04-10T11:36:21.955Z,37.93
2019-04-10T11:38:49.379Z,38.80
2019-04-10T11:41:18.900Z,36.70
2019-04-10T11:43:46.622Z,39.07
2019-04-10T11:46:14.816Z,38.00
2019-04-10T11:48:45.499Z,38.30
2019-04-10T11:51:13.303Z,37.40
2019-04-10T11:53:44.118Z,37.33
2019-04-10T11:56:18.896Z,39.00
2019-04-10T11:58:51.224Z,39.87
2019-04-10T12:01:14.244Z,39.43
2019-04-10T12:03:48.259Z,38.70
2019-04-10T12:06:11.913Z,39.20
2019-04-10T12:11:13.865Z,38.23
2019-04-10T12:13:38.711Z,38.30
2019-04-10T12:16:07.072Z,34.57
2019-04-10T12:18:35.089Z,35.87
2019-04-10T12:21:02.583Z,33.77
2019-04-10T12:23:29.946Z,35.43
2019-04-10T12:25:57.260Z,37.00
2019-04-10T12:28:36.473Z,36.07
2019-04-10T12:31:03.898Z,34.13
2019-04-10T12:33:31.706Z,32.33
2019-04-10T12:36:00.310Z,35.00
2019-04-10T12:38:27.972Z,32.60
2019-04-10T12:40:55.448Z,33.90
2019-04-10T12:43:23.151Z,33.00
2019-04-10T12:45:50.766Z,32.83
2019-04-10T12:48:18.769Z,33.67
2019-04-10T12:50:47.451Z,36.20
2019-04-10T12:53:23.301Z,32.73
2019-04-10T12:55:51.423Z,34.83
2019-04-10T12:58:19.347Z,35.03
2019-04-10T13:00:48.144Z,34.73
2019-04-10T13:03:16.662Z,35.67
2019-04-10T13:05:45.139Z,34.60
2019-04-10T13:08:21.328Z,34.63
2019-04-10T13:10:43.557Z,36.40
2019-04-10T13:13:11.567Z,37.03
2019-04-10T13:15:39.346Z,37.60
2019-04-10T13:18:07.901Z,36.53
2019-04-10T13:20:35.399Z,37.70
2019-04-10T13:23:02.807Z,35.97
2019-04-10T13:25:30.222Z,38.03
2019-04-10T13:27:57.552Z,41.70
2019-04-10T13:30:25.068Z,39.87
2019-04-10T13:32:52.430Z,41.77
2019-04-10T13:35:19.942Z,39.17
2019-04-10T13:37:47.627Z,37.30
2019-04-10T13:40:15.278Z,42.10
2019-04-10T13:42:42.603Z,41.80
2019-04-10T13:45:11.053Z,42.20
2019-04-10T13:47:38.646Z,40.50
2019-04-10T13:50:07.196Z,43.37
2019-04-10T13:52:36.339Z,42.67
2019-04-10T13:55:05.505Z,46.33
2019-04-10T13:57:32.889Z,44.17
2019-04-10T14:00:00.281Z,46.87
2019-04-10T14:02:32.235Z,42.43
2019-04-10T14:04:59.980Z,44.90
2019-04-10T14:07:28.450Z,44.00
2019-04-10T14:09:56.581Z,40.47
2019-04-10T14:12:24.947Z,46.17
2019-04-10T14:14:53.092Z,44.80
2019-04-10T14:17:21.539Z,46.70
2019-04-10T14:19:49.795Z,44.67
2019-04-10T14:22:17.721Z,41.90
2019-04-10T14:24:47.735Z,42.50
2019-04-10T14:27:16.153Z,42.77
2019-04-10T14:29:44.793Z,40.27
2019-04-10T14:32:13.897Z,40.03
2019-04-10T14:34:41.184Z,36.73
2019-04-10T14:37:11.416Z,40.27
2019-04-10T14:39:39.612Z,39.93
2019-04-10T14:42:08.667Z,37.40
2019-04-10T14:44:36.795Z,42.67
2019-04-10T14:47:04.491Z,43.60
2019-04-10T14:49:31.823Z,41.87
2019-04-10T14:51:59.116Z,41.57
2019-04-10T14:54:26.589Z,39.93
2019-04-10T14:56:54.585Z,39.70
2019-04-10T14:59:22.123Z,40.37
2019-04-10T15:01:51.194Z,42.20
2019-04-10T15:04:19.311Z,40.00
2019-04-10T15:06:47.866Z,41.03
2019-04-10T15:09:22.207Z,40.80
2019-04-10T15:11:46.819Z,39.80
2019-04-10T15:14:15.215Z,41.87
2019-04-10T15:16:52.994Z,40.77
2019-04-10T15:19:12.146Z,37.37
2019-04-10T15:21:39.468Z,39.60
2019-04-10T15:24:06.989Z,39.60
2019-04-10T15:26:34.392Z,37.93
2019-04-10T15:29:01.756Z,36.67
2019-04-10T15:31:29.128Z,37.60
2019-04-10T15:33:56.499Z,37.57
2019-04-10T15:36:25.003Z,39.07
2019-04-10T15:38:52.767Z,37.67
2019-04-10T15:41:21.034Z,41.73
2019-04-10T15:43:49.716Z,36.77
2019-04-10T15:46:17.236Z,36.40
2019-04-10T15:48:44.620Z,38.67
2019-04-10T15:51:12.027Z,38.33
2019-04-10T15:53:39.458Z,37.97
2019-04-10T15:56:07.718Z,37.83
2019-04-10T15:58:35.406Z,38.67
2019-04-10T16:01:05.553Z,36.70
2019-04-10T16:03:33.007Z,29.33
2019-04-10T16:06:00.309Z,29.27
2019-04-10T16:08:28.438Z,30.43
2019-04-10T16:10:57.370Z,30.47
2019-04-10T16:13:26.480Z,27.13
2019-04-10T16:15:54.701Z,25.13
2019-04-10T16:18:26.707Z,23.07
2019-04-10T16:20:55.618Z,27.47
2019-04-10T16:23:33.624Z,27.20
2019-04-10T16:26:01.092Z,24.27
2019-04-10T16:28:29.297Z,23.80
2019-04-10T16:30:57.193Z,21.43
2019-04-10T16:33:25.430Z,21.47
2019-04-10T16:35:52.993Z,20.87
2019-04-10T16:38:20.566Z,20.30
2019-04-10T16:40:48.076Z,21.30
2019-04-10T16:43:15.984Z,22.10
2019-04-10T16:45:43.566Z,19.03
2019-04-10T16:48:10.991Z,18.43
2019-04-10T16:50:39.341Z,18.33
2019-04-10T16:53:06.742Z,17.83
2019-04-10T16:55:34.623Z,18.20
2019-04-10T16:58:03.136Z,17.33
2019-04-10T17:00:31.227Z,16.67
2019-04-10T17:02:59.392Z,18.70
2019-04-10T17:05:26.833Z,17.20
2019-04-10T17:07:55.316Z,19.07
2019-04-10T17:10:26.383Z,16.73
2019-04-10T17:12:53.966Z,17.43
2019-04-10T17:15:21.313Z,18.97
2019-04-10T17:17:48.627Z,17.80
2019-04-10T17:20:16.050Z,18.80
2019-04-10T17:22:46.051Z,17.20
2019-04-10T17:25:13.765Z,19.73
2019-04-10T17:27:41.237Z,19.10
2019-04-10T17:30:09.541Z,18.27
2019-04-10T17:32:38.185Z,19.93
2019-04-10T17:35:07.785Z,19.00
2019-04-10T17:37:35.944Z,18.27
2019-04-10T17:40:06.169Z,18.83
2019-04-10T17:42:34.532Z,19.90
2019-04-10T17:45:02.923Z,17.90
2019-04-10T17:47:33.399Z,18.57
2019-04-10T17:50:00.795Z,17.37
2019-04-10T17:52:29.264Z,19.37
2019-04-10T17:54:56.779Z,17.60
2019-04-10T17:57:36.316Z,14.93
2019-04-10T17:59:54.861Z,14.80
2019-04-10T18:02:23.397Z,14.70
2019-04-10T18:04:50.991Z,15.70
2019-04-10T18:07:18.417Z,13.63
2019-04-10T18:09:46.451Z,13.90
2019-04-10T18:12:14.242Z,13.63
2019-04-10T18:14:42.632Z,13.67
2019-04-10T18:17:11.019Z,13.83
2019-04-10T18:19:38.630Z,13.67
2019-04-10T18:22:06.773Z,12.20
2019-04-10T18:24:34.257Z,13.60
2019-04-10T18:27:01.566Z,12.03
2019-04-10T18:29:28.959Z,12.30
2019-04-10T18:31:57.948Z,12.40
2019-04-10T18:34:25.536Z,11.03
2019-04-10T18:36:55.012Z,11.47
2019-04-10T18:39:22.405Z,11.53
2019-04-10T18:41:49.790Z,12.47
2019-04-10T18:44:17.138Z,11.27
2019-04-10T18:46:44.504Z,12.00
2019-04-10T18:49:11.817Z,11.67
2019-04-10T18:51:40.308Z,12.37
2019-04-10T18:54:09.713Z,12.13
2019-04-10T18:56:37.605Z,12.40
2019-04-10T18:59:18.808Z,12.70
2019-04-10T19:01:51.307Z,12.70
2019-04-10T19:04:20.474Z,12.90
2019-04-10T19:06:56.544Z,12.63
2019-04-10T19:09:28.181Z,13.07
2019-04-10T19:11:54.783Z,12.70
2019-04-10T19:14:24.670Z,13.70
2019-04-10T19:16:52.876Z,14.30
2019-04-10T19:19:20.521Z,12.80
2019-04-10T19:21:48.465Z,14.20
2019-04-10T19:24:16.017Z,15.97
2019-04-10T19:26:46.106Z,13.70
2019-04-10T19:29:15.004Z,14.03
2019-04-10T19:31:44.025Z,13.50
2019-04-10T19:34:13.075Z,14.33
2019-04-10T19:36:41.632Z,14.40
2019-04-10T19:39:10.719Z,14.60
2019-04-10T19:41:41.159Z,14.70
2019-04-10T19:44:07.437Z,15.47
2019-04-10T19:46:35.584Z,14.57
2019-04-10T19:49:03.887Z,13.97
2019-04-10T19:51:32.212Z,13.63
2019-04-10T19:54:00.057Z,15.10
2019-04-10T19:56:28.686Z,14.47
2019-04-10T19:58:56.503Z,15.00
2019-04-10T20:01:26.775Z,14.50
2019-04-10T20:03:52.924Z,14.90
2019-04-10T20:06:22.321Z,15.03
2019-04-10T20:08:50.233Z,15.60
2019-04-10T20:11:17.613Z,13.43
2019-04-10T20:13:45.039Z,14.53
2019-04-10T20:16:13.138Z,14.27
2019-04-10T20:18:41.175Z,14.03
2019-04-10T20:21:09.937Z,16.30
2019-04-10T20:23:38.295Z,14.63
2019-04-10T20:26:05.653Z,14.67
2019-04-10T20:28:34.497Z,14.97
2019-04-10T20:31:01.768Z,16.50
2019-04-10T20:33:29.064Z,15.30
2019-04-10T20:35:56.465Z,16.53
2019-04-10T20:38:23.844Z,15.90
2019-04-10T20:40:51.955Z,16.00
2019-04-10T20:43:21.085Z,17.10
2019-04-10T20:45:49.593Z,16.80
2019-04-10T20:48:17.139Z,15.63
2019-04-10T20:50:44.616Z,15.73
2019-04-10T20:53:11.970Z,15.47
2019-04-10T20:55:39.255Z,16.57
2019-04-10T20:58:06.673Z,16.53
2019-04-10T21:00:39.019Z,16.60
2019-04-10T21:03:07.086Z,14.23
2019-04-10T21:05:35.797Z,14.70
2019-04-10T21:08:04.189Z,15.47
2019-04-10T21:10:31.604Z,16.10
2019-04-10T21:13:01.127Z,17.03
2019-04-10T21:15:28.562Z,16.37
2019-04-10T21:17:56.960Z,17.17
2019-04-10T21:20:27.159Z,14.93
2019-04-10T21:22:55.597Z,16.07
2019-04-10T21:25:23.248Z,16.87
2019-04-10T21:27:52.085Z,16.50
2019-04-10T21:30:22.079Z,16.27
2019-04-10T21:32:55.417Z,16.37
2019-04-10T21:35:25.067Z,15.80
2019-04-10T21:37:52.852Z,15.80
2019-04-10T21:40:20.720Z,16.10
2019-04-10T21:42:48.080Z,17.33
2019-04-10T21:45:15.924Z,16.33
2019-04-10T21:47:44.018Z,19.10
2019-04-10T21:50:11.556Z,18.87
2019-04-10T21:52:39.308Z,20.03
2019-04-10T21:55:06.913Z,18.70
2019-04-10T21:57:34.205Z,19.37
2019-04-10T22:00:01.690Z,19.57
2019-04-10T22:02:29.500Z,20.17
2019-04-10T22:04:57.477Z,20.50
2019-04-10T22:07:32.798Z,18.70
2019-04-10T22:10:13.792Z,19.50
2019-04-10T22:12:46.946Z,18.20
2019-04-10T22:15:12.763Z,19.07
2019-04-10T22:17:40.518Z,18.83
2019-04-10T22:20:07.900Z,16.73
2019-04-10T22:22:35.201Z,17.33
2019-04-10T22:25:03.390Z,16.70
2019-04-10T22:27:31.681Z,17.87
2019-04-10T22:29:59.112Z,17.30
2019-04-10T22:32:26.929Z,19.17
2019-04-10T22:34:54.936Z,21.67
2019-04-10T22:37:22.247Z,19.40
2019-04-10T22:39:50.500Z,19.43
2019-04-10T22:42:19.018Z,18.47
2019-04-10T22:44:47.200Z,20.60
2019-04-10T22:47:16.846Z,19.37
2019-04-10T22:49:45.092Z,19.03
2019-04-10T22:52:12.574Z,19.30
2019-04-10T22:54:40.077Z,19.43
2019-04-10T22:57:07.395Z,18.23
2019-04-10T22:59:34.893Z,18.80
2019-04-10T23:02:10.554Z,17.80
2019-04-10T23:04:31.456Z,18.30
2019-04-10T23:06:59.823Z,17.63
2019-04-10T23:09:28.467Z,19.50
2019-04-10T23:11:56.118Z,18.10
2019-04-10T23:14:23.419Z,19.27
2019-04-10T23:16:50.699Z,19.37
2019-04-10T23:19:18.252Z,19.33
2019-04-10T23:21:45.653Z,22.17
2019-04-10T23:24:13.656Z,26.10
2019-04-10T23:26:41.635Z,24.07
2019-04-10T23:29:09.063Z,24.00
2019-04-10T23:31:37.375Z,22.67
2019-04-10T23:34:04.925Z,24.87
2019-04-10T23:36:32.205Z,27.90
2019-04-10T23:38:59.731Z,29.20
2019-04-10T23:41:27.153Z,29.60
2019-04-10T23:43:55.697Z,31.17
2019-04-10T23:46:23.195Z,28.93
2019-04-10T23:48:50.533Z,28.70
2019-04-10T23:51:18.909Z,29.90
2019-04-10T23:53:46.934Z,30.17
2019-04-10T23:56:15.535Z,30.47
2019-04-10T23:58:42.980Z,30.60
